Time;durP1;ratioP1;P1;durP2;ratioP2;P2;SDS_P1;SDS_P2;PMS_P1;PMS_P2;Temp;Humidity;BMP_temperature;BMP_pressure;BME280_temperature;BME280_humidity;BME280_pressure;Samples;Min_cycle;Max_cycle;Signal;HPM_P1;HPM_P2
2023/02/05 00:03:41;;;;;;;10.80;5.50;;;;;;;-2.09;81.72;100491.60;221968;1275;22605;-74
2023/02/05 00:08:43;;;;;;;11.50;6.10;;;;;;;-2.14;82.14;100495.57;221594;1278;22629;-73
2023/02/05 00:13:50;;;;;;;12.50;6.30;;;;;;;-2.18;82.38;100490.73;221711;1277;22513;-74
2023/02/05 00:18:53;;;;;;;11.40;6.00;;;;;;;-2.23;82.69;100492.86;222112;1275;24240;-74
2023/02/05 00:23:55;;;;;;;11.20;6.50;;;;;;;-2.29;83.01;100488.47;221672;1273;24379;-74
2023/02/05 00:28:58;;;;;;;11.20;6.80;;;;;;;-2.37;83.53;100490.02;221596;1278;22590;-74
2023/02/05 00:34:02;;;;;;;11.40;6.20;;;;;;;-2.41;83.95;100489.86;221587;1278;25496;-74
2023/02/05 00:39:07;;;;;;;9.90;5.30;;;;;;;-2.45;84.15;100491.55;221737;1276;22660;-76
2023/02/05 00:44:09;;;;;;;10.20;5.50;;;;;;;-2.49;84.27;100491.17;221750;1277;22730;-73
2023/02/05 00:49:12;;;;;;;9.40;5.30;;;;;;;-2.50;84.40;100495.02;221779;1275;22761;-73
2023/02/05 00:54:15;;;;;;;10.40;5.60;;;;;;;-2.51;84.45;100497.81;221706;1278;22703;-74
2023/02/05 00:59:17;;;;;;;9.80;5.50;;;;;;;-2.50;84.65;100497.26;221532;1277;25133;-74
2023/02/05 01:04:18;;;;;;;12.70;6.40;;;;;;;-2.49;84.78;100495.84;221644;1277;24164;-77
2023/02/05 01:09:22;;;;;;;10.10;5.40;;;;;;;-2.49;84.88;100498.75;221824;1269;25663;-74
2023/02/05 01:14:24;;;;;;;12.70;6.60;;;;;;;-2.49;84.99;100503.77;221801;1276;22799;-75
2023/02/05 01:19:26;;;;;;;10.00;5.80;;;;;;;-2.50;85.04;100511.20;221792;1278;24090;-75
2023/02/05 01:24:28;;;;;;;11.10;5.90;;;;;;;-2.50;85.32;100511.56;221811;1276;22714;-75
2023/02/05 01:29:30;;;;;;;12.90;7.70;;;;;;;-2.51;85.30;100509.20;221784;1277;22590;-74
2023/02/05 01:34:33;;;;;;;10.90;6.60;;;;;;;-2.53;85.27;100507.92;221635;1278;22541;-74
2023/02/05 01:39:36;;;;;;;12.30;6.40;;;;;;;-2.54;85.20;100502.45;221715;1278;22626;-74
2023/02/05 01:44:39;;;;;;;10.20;7.20;;;;;;;-2.56;85.22;100497.69;221765;1276;24229;-74
2023/02/05 01:49:45;;;;;;;9.90;6.00;;;;;;;-2.59;85.12;100500.77;221812;1278;22773;-75
2023/02/05 01:54:51;;;;;;;12.80;8.80;;;;;;;-2.64;85.22;100503.19;221749;1277;22566;-74
2023/02/05 01:59:54;;;;;;;15.10;8.40;;;;;;;-2.68;85.21;100501.64;221658;1278;22598;-74
2023/02/05 02:05:01;;;;;;;12.30;7.70;;;;;;;-2.73;84.98;100504.95;221508;1254;23103;-75
2023/02/05 02:10:05;;;;;;;13.30;8.60;;;;;;;-2.76;85.45;100514.72;221668;1277;24301;-73
2023/02/05 02:15:19;;;;;;;15.70;9.40;;;;;;;-2.76;85.40;100517.98;221739;1272;22566;-73
2023/02/05 02:20:29;;;;;;;16.80;9.90;;;;;;;-2.77;85.51;100513.73;221738;1273;24336;-75
2023/02/05 02:25:47;;;;;;;19.30;12.00;;;;;;;-2.83;85.29;100508.82;221664;1277;23243;-73
2023/02/05 02:31:05;;;;;;;20.20;11.80;;;;;;;-2.94;85.17;100510.94;221753;1270;25588;-74
2023/02/05 02:36:16;;;;;;;18.60;12.00;;;;;;;-3.04;85.30;100521.18;221717;1277;24218;-74
2023/02/05 02:41:27;;;;;;;22.60;13.00;;;;;;;-3.14;85.35;100524.33;221614;1268;25624;-75
2023/02/05 02:46:43;;;;;;;21.00;13.60;;;;;;;-3.21;85.64;100526.83;221718;1274;22689;-74
2023/02/05 02:51:50;;;;;;;17.60;11.80;;;;;;;-3.24;85.52;100521.59;221807;1270;23850;-75
2023/02/05 02:56:54;;;;;;;18.90;11.50;;;;;;;-3.23;85.58;100515.34;221866;1273;24222;-74
2023/02/05 03:02:01;;;;;;;14.50;9.30;;;;;;;-3.23;85.42;100514.48;221752;1273;22583;-73
2023/02/05 03:07:12;;;;;;;14.70;8.60;;;;;;;-3.24;85.40;100507.30;221839;1270;22593;-73
2023/02/05 03:12:14;;;;;;;14.50;8.30;;;;;;;-3.29;85.37;100505.42;221868;1273;24329;-74
2023/02/05 03:17:18;;;;;;;13.40;8.60;;;;;;;-3.35;85.41;100512.73;221865;1277;22767;-74
2023/02/05 03:22:24;;;;;;;16.80;9.20;;;;;;;-3.40;85.51;100512.73;221765;1278;22698;-73
2023/02/05 03:27:27;;;;;;;13.40;9.00;;;;;;;-3.45;85.37;100506.23;221766;1271;25367;-74
2023/02/05 03:32:45;;;;;;;14.80;9.20;;;;;;;-3.53;85.48;100504.63;221591;1273;22596;-73
2023/02/05 03:38:11;;;;;;;18.60;11.50;;;;;;;-3.72;85.44;100505.65;221713;1276;22737;-73
2023/02/05 03:43:20;;;;;;;19.00;10.60;;;;;;;-3.86;85.59;100514.27;221687;1258;22812;-73
2023/02/05 03:48:38;;;;;;;17.90;10.60;;;;;;;-3.96;85.67;100515.46;221762;1277;22541;-74
2023/02/05 03:54:03;;;;;;;22.80;11.60;;;;;;;-4.06;85.67;100516.34;221640;1272;25591;-73
2023/02/05 03:59:08;;;;;;;20.00;11.70;;;;;;;-4.15;85.80;100526.64;221734;1273;22659;-73
2023/02/05 04:04:11;;;;;;;21.10;13.50;;;;;;;-4.22;85.94;100535.85;221631;1276;22635;-74
2023/02/05 04:09:13;;;;;;;19.10;12.40;;;;;;;-4.28;86.08;100537.73;221757;1270;22614;-74
2023/02/05 04:14:16;;;;;;;19.60;11.20;;;;;;;-4.28;86.08;100536.68;221818;1277;22722;-74
2023/02/05 04:19:19;;;;;;;18.50;11.50;;;;;;;-4.27;86.23;100534.94;221662;1277;22696;-73
2023/02/05 04:24:22;;;;;;;18.40;11.40;;;;;;;-4.32;85.94;100533.41;221711;1276;22646;-73
2023/02/05 04:29:24;;;;;;;18.20;11.00;;;;;;;-4.39;86.16;100540.52;221624;1277;24512;-74
2023/02/05 04:34:27;;;;;;;28.20;15.60;;;;;;;-4.46;86.21;100544.05;221709;1270;22597;-74
2023/02/05 04:39:29;;;;;;;21.20;12.10;;;;;;;-4.52;86.32;100550.92;221725;1275;24255;-74
2023/02/05 04:44:31;;;;;;;18.30;10.90;;;;;;;-4.54;86.43;100550.65;221722;1277;22561;-73
2023/02/05 04:49:37;;;;;;;18.70;11.00;;;;;;;-4.55;86.44;100545.19;221750;1277;22749;-73
2023/02/05 04:54:39;;;;;;;19.30;11.50;;;;;;;-4.57;86.46;100551.08;221607;1277;22602;-73
2023/02/05 04:59:41;;;;;;;20.80;11.40;;;;;;;-4.58;86.51;100560.73;221661;1273;23205;-73
2023/02/05 05:04:43;;;;;;;20.90;12.90;;;;;;;-4.56;86.53;100563.77;221724;1272;22603;-74
2023/02/05 05:09:45;;;;;;;25.70;14.80;;;;;;;-4.48;86.71;100571.78;221700;1277;22610;-72
2023/02/05 05:14:47;;;;;;;23.00;14.40;;;;;;;-4.44;86.68;100579.20;221540;1276;22759;-74
2023/02/05 05:19:49;;;;;;;24.50;14.90;;;;;;;-4.48;86.62;100576.06;221649;1272;22691;-74
2023/02/05 05:24:51;;;;;;;21.60;13.80;;;;;;;-4.56;86.47;100582.69;221646;1275;22651;-73
2023/02/05 05:29:53;;;;;;;22.20;14.30;;;;;;;-4.69;86.43;100594.27;221689;1260;28034;-76
2023/02/05 05:34:56;;;;;;;21.40;12.20;;;;;;;-4.83;86.22;100600.38;221708;1256;22713;-74
2023/02/05 05:45:19;;;;;;;19.30;11.10;;;;;;;-5.20;86.15;100618.15;221694;1276;23362;-74
2023/02/05 05:50:21;;;;;;;19.50;11.60;;;;;;;-5.40;86.02;100618.69;221649;1277;22614;-73
2023/02/05 05:55:23;;;;;;;21.00;13.40;;;;;;;-5.53;86.28;100625.57;221757;1275;23006;-73
2023/02/05 06:00:25;;;;;;;25.10;13.90;;;;;;;-5.64;86.41;100632.06;221590;1277;24291;-74
2023/02/05 06:05:30;;;;;;;25.50;14.80;;;;;;;-5.75;86.50;100640.41;221818;1274;26722;-73
2023/02/05 06:10:32;;;;;;;27.60;13.80;;;;;;;-5.85;86.70;100655.92;221757;1275;24448;-73
2023/02/05 06:15:34;;;;;;;34.10;18.00;;;;;;;-5.90;86.85;100661.23;221719;1272;23587;-73
2023/02/05 06:20:36;;;;;;;31.50;16.70;;;;;;;-5.94;86.89;100672.35;221678;1277;22614;-74
2023/02/05 06:25:39;;;;;;;30.90;18.10;;;;;;;-5.94;86.89;100684.35;221528;1277;25276;-74
2023/02/05 06:30:41;;;;;;;35.20;19.30;;;;;;;-5.93;86.90;100682.77;221736;1274;22746;-73
2023/02/05 06:35:43;;;;;;;34.70;18.80;;;;;;;-5.95;86.90;100683.19;221612;1276;25542;-73
2023/02/05 06:40:47;;;;;;;31.80;17.30;;;;;;;-5.97;87.02;100689.41;221824;1275;24231;-73
2023/02/05 06:45:49;;;;;;;28.50;15.90;;;;;;;-5.95;87.23;100685.91;221788;1275;23975;-74
2023/02/05 06:50:54;;;;;;;28.80;17.30;;;;;;;-5.90;87.44;100690.74;221794;1277;22708;-73
2023/02/05 06:55:59;;;;;;;30.90;17.60;;;;;;;-5.85;87.49;100698.66;221827;1270;22547;-73
2023/02/05 07:01:02;;;;;;;32.20;17.80;;;;;;;-5.80;87.41;100699.24;221750;1254;24373;-73
2023/02/05 07:06:05;;;;;;;27.40;16.60;;;;;;;-5.73;87.51;100697.49;221668;1275;22683;-73
2023/02/05 07:11:07;;;;;;;32.20;17.90;;;;;;;-5.66;87.22;100700.09;221865;1275;23138;-74
2023/02/05 07:16:09;;;;;;;31.20;17.50;;;;;;;-5.60;87.17;100711.23;221468;1276;22594;-74
2023/02/05 07:21:16;;;;;;;28.10;16.00;;;;;;;-5.38;87.29;100711.88;221728;1276;22576;-73
2023/02/05 07:26:17;;;;;;;24.20;15.70;;;;;;;-4.73;88.23;100717.79;221876;1277;22835;-73
2023/02/05 07:31:19;;;;;;;21.10;14.20;;;;;;;-4.55;86.82;100725.17;222016;1275;23431;-73
2023/02/05 07:36:22;;;;;;;29.30;17.60;;;;;;;-4.56;86.06;100731.55;221797;1275;22905;-73
2023/02/05 07:41:25;;;;;;;24.70;14.90;;;;;;;-4.55;86.21;100733.08;221747;1254;23118;-73
2023/02/05 07:46:27;;;;;;;20.40;12.90;;;;;;;-4.48;86.25;100735.63;221819;1275;24252;-73
2023/02/05 07:51:30;;;;;;;20.90;12.80;;;;;;;-4.29;86.43;100737.13;221808;1275;24235;-73
2023/02/05 07:56:32;;;;;;;18.70;12.20;;;;;;;-4.06;86.43;100738.84;221793;1275;22830;-74
2023/02/05 08:01:34;;;;;;;18.20;11.20;;;;;;;-3.87;86.13;100742.88;221689;1275;24235;-74
2023/02/05 08:06:36;;;;;;;16.70;10.20;;;;;;;-3.78;85.73;100748.60;221753;1275;25591;-73
2023/02/05 08:11:38;;;;;;;15.60;9.20;;;;;;;-3.71;85.42;100753.55;221916;1275;22579;-76
2023/02/05 08:16:40;;;;;;;17.40;9.70;;;;;;;-3.65;85.03;100750.08;221881;1277;22683;-74
2023/02/05 08:21:43;;;;;;;16.70;10.20;;;;;;;-3.56;85.07;100760.28;221848;1275;23018;-74
2023/02/05 08:26:45;;;;;;;16.40;10.70;;;;;;;-3.47;84.96;100761.20;221822;1273;22740;-73
2023/02/05 08:31:47;;;;;;;17.30;10.30;;;;;;;-3.38;84.89;100761.73;221791;1273;22609;-73
2023/02/05 08:36:49;;;;;;;15.70;10.00;;;;;;;-3.23;84.77;100761.39;221507;1276;25583;-73
2023/02/05 08:41:52;;;;;;;18.50;11.30;;;;;;;-3.09;84.75;100770.21;221746;1275;22760;-75
2023/02/05 08:46:56;;;;;;;17.10;10.70;;;;;;;-2.94;84.54;100774.17;221776;1272;24237;-74
2023/02/05 08:51:58;;;;;;;20.40;12.50;;;;;;;-2.77;84.16;100777.18;221815;1276;24160;-73
2023/02/05 08:57:01;;;;;;;20.40;10.70;;;;;;;-2.39;84.07;100778.73;221822;1272;25415;-73
2023/02/05 09:02:04;;;;;;;11.30;6.80;;;;;;;-1.94;83.89;100780.28;221762;1273;22629;-73
2023/02/05 09:07:06;;;;;;;9.60;6.40;;;;;;;-1.68;82.56;100791.34;221726;1269;22593;-73
2023/02/05 09:12:09;;;;;;;11.20;6.80;;;;;;;-1.63;80.99;100790.59;221736;1277;24483;-74
2023/02/05 09:17:13;;;;;;;9.80;6.30;;;;;;;-1.62;80.83;100795.05;221731;1273;22583;-75
2023/02/05 09:22:17;;;;;;;11.40;6.30;;;;;;;-1.42;81.02;100796.35;221965;1273;22527;-74
2023/02/05 09:27:19;;;;;;;11.00;6.50;;;;;;;-1.11;80.90;100804.20;221774;1272;25290;-74
2023/02/05 09:32:22;;;;;;;10.50;7.00;;;;;;;-0.96;80.09;100809.25;221832;1277;22989;-75
2023/02/05 09:37:24;;;;;;;10.80;6.90;;;;;;;-0.81;80.30;100804.29;221854;1270;22618;-74
2023/02/05 09:42:38;;;;;;;8.80;6.10;;;;;;;-0.69;79.98;100809.13;221801;1277;22549;-75
2023/02/05 09:48:21;;;;;;;10.50;6.70;;;;;;;-0.67;79.44;100808.01;221779;1274;22776;-76
2023/02/05 09:53:36;;;;;;;11.10;6.70;;;;;;;-0.68;79.06;100809.08;221545;1277;168795;-75
2023/02/05 09:58:45;;;;;;;9.50;6.00;;;;;;;-0.82;78.22;100801.23;221769;1274;23735;-75
2023/02/05 10:03:59;;;;;;;10.00;6.30;;;;;;;-1.07;77.32;100796.61;221527;1276;23721;-74
2023/02/05 10:09:23;;;;;;;11.30;7.30;;;;;;;-1.33;77.07;100785.42;221767;1275;24254;-75
2023/02/05 10:14:38;;;;;;;9.30;5.70;;;;;;;-1.40;77.55;100782.60;221836;1275;22597;-75
2023/02/05 10:20:04;;;;;;;10.80;7.00;;;;;;;-1.51;76.83;100784.74;221892;1274;25531;-75
2023/02/05 10:25:33;;;;;;;8.50;5.40;;;;;;;-1.56;76.94;100783.07;221904;1273;23026;-74
2023/02/05 10:30:55;;;;;;;5.70;3.90;;;;;;;-1.58;76.70;100784.02;221866;1273;22582;-74
2023/02/05 10:36:01;;;;;;;7.80;5.80;;;;;;;-1.51;76.13;100786.87;221767;1275;22679;-74
2023/02/05 10:41:11;;;;;;;8.60;5.40;;;;;;;-1.43;76.65;100786.01;221988;1277;22699;-74
2023/02/05 10:46:16;;;;;;;8.50;5.50;;;;;;;-1.29;75.73;100784.58;221891;1274;25546;-75
2023/02/05 10:51:29;;;;;;;10.70;6.80;;;;;;;-1.17;75.64;100784.38;221719;1272;22521;-73
2023/02/05 10:56:32;;;;;;;10.10;6.50;;;;;;;-1.04;75.22;100781.06;221802;1277;24407;-75
2023/02/05 11:01:37;;;;;;;8.80;5.10;;;;;;;-0.91;75.28;100778.46;221863;1272;22710;-74
2023/02/05 11:06:50;;;;;;;7.80;4.70;;;;;;;-0.95;74.14;100776.05;221851;1277;22682;-75
2023/02/05 11:12:05;;;;;;;7.50;4.80;;;;;;;-1.10;73.80;100769.39;221816;1277;25392;-74
2023/02/05 11:17:30;;;;;;;4.60;3.80;;;;;;;-1.23;73.24;100767.70;221750;1275;22575;-75
2023/02/05 11:22:36;;;;;;;5.40;3.60;;;;;;;-1.34;72.95;100768.52;221725;1272;22541;-74
2023/02/05 11:27:38;;;;;;;6.90;4.40;;;;;;;-1.34;72.93;100767.33;221739;1275;23640;-76
2023/02/05 11:32:40;;;;;;;5.90;3.90;;;;;;;-1.16;73.74;100765.33;221645;1275;25300;-76
2023/02/05 11:37:44;;;;;;;5.00;3.30;;;;;;;-0.90;73.58;100759.55;221732;1277;22544;-74
2023/02/05 11:42:53;;;;;;;24.90;17.70;;;;;;;-0.80;73.18;100754.97;221743;1278;22707;-75
2023/02/05 11:47:59;;;;;;;5.70;3.80;;;;;;;-0.83;72.94;100761.82;221650;1277;22582;-75
2023/02/05 11:53:11;;;;;;;4.40;3.50;;;;;;;-0.98;72.38;100761.63;221744;1276;22540;-77
2023/02/05 11:58:29;;;;;;;5.20;3.60;;;;;;;-1.19;71.94;100757.83;221569;1277;22589;-75
2023/02/05 12:03:38;;;;;;;5.50;3.30;;;;;;;-1.32;72.19;100755.13;221772;1275;24232;-74
2023/02/05 12:08:47;;;;;;;3.80;3.00;;;;;;;-1.54;71.73;100760.87;221818;1273;22615;-74
2023/02/05 12:14:01;;;;;;;5.40;3.80;;;;;;;-1.71;71.99;100761.40;221823;1278;22553;-74
2023/02/05 12:19:25;;;;;;;5.40;4.00;;;;;;;-1.85;72.58;100759.02;221647;1277;25480;-75
2023/02/05 12:24:50;;;;;;;5.90;4.70;;;;;;;-1.91;72.88;100756.70;221735;1272;26720;-75
2023/02/05 12:30:12;;;;;;;6.10;3.90;;;;;;;-1.92;73.13;100757.96;221126;1281;23257;-75
2023/02/05 12:35:41;;;;;;;5.30;4.10;;;;;;;-1.94;73.26;100755.41;221154;1280;25566;-75
2023/02/05 12:40:52;;;;;;;6.60;4.10;;;;;;;-1.89;73.26;100759.88;221109;1278;22543;-75
2023/02/05 12:46:14;;;;;;;6.10;4.20;;;;;;;-1.92;72.95;100749.30;221106;1278;24389;-73
2023/02/05 12:51:37;;;;;;;7.50;5.40;;;;;;;-1.88;73.44;100751.54;221167;1281;22547;-75
2023/02/05 12:57:00;;;;;;;6.90;5.10;;;;;;;-1.83;73.29;100759.30;221060;1278;22552;-74
2023/02/05 13:02:11;;;;;;;7.70;4.80;;;;;;;-1.88;72.44;100765.36;221575;1277;22544;-74
2023/02/05 13:07:28;;;;;;;8.70;5.80;;;;;;;-1.81;72.61;100762.50;221816;1277;22574;-74
2023/02/05 13:12:36;;;;;;;8.90;5.30;;;;;;;-1.62;72.32;100756.38;221796;1274;22618;-74
2023/02/05 13:17:56;;;;;;;7.80;5.30;;;;;;;-1.48;71.78;100748.02;221914;1277;22557;-75
2023/02/05 13:28:40;;;;;;;8.40;5.40;;;;;;;-1.25;71.53;100755.55;221781;1275;25278;-74
2023/02/05 13:33:43;;;;;;;7.00;5.10;;;;;;;-1.21;71.08;100746.37;221776;1273;22539;-75
2023/02/05 13:39:12;;;;;;;7.60;5.40;;;;;;;-1.25;70.52;100744.29;221838;1272;22547;-75
2023/02/05 13:44:43;;;;;;;8.60;5.80;;;;;;;-1.29;70.67;100745.85;221775;1278;22835;-74
2023/02/05 13:50:04;;;;;;;7.00;4.60;;;;;;;-1.29;70.57;100741.69;221752;1275;25243;-73
2023/02/05 13:55:23;;;;;;;7.00;5.00;;;;;;;-1.27;70.61;100738.15;221913;1273;25592;-74
2023/02/05 14:00:27;;;;;;;6.30;4.60;;;;;;;-1.30;70.73;100735.66;221800;1275;25484;-73
2023/02/05 14:05:33;;;;;;;6.90;4.80;;;;;;;-1.38;70.64;100733.62;221814;1275;25491;-75
2023/02/05 14:10:40;;;;;;;7.70;5.20;;;;;;;-1.51;70.95;100732.27;221773;1278;22787;-75
2023/02/05 14:15:43;;;;;;;6.70;4.60;;;;;;;-1.59;71.20;100731.73;221774;1273;24282;-76
2023/02/05 14:20:45;;;;;;;78.30;46.90;;;;;;;-1.73;71.07;100729.70;221670;1275;23321;-74
2023/02/05 14:26:07;;;;;;;8.10;5.40;;;;;;;-1.84;71.36;100733.95;221727;1278;24058;-75
2023/02/05 14:31:46;;;;;;;7.30;5.20;;;;;;;-1.91;71.58;100733.01;221750;1275;25287;-75
2023/02/05 14:36:49;;;;;;;7.50;5.20;;;;;;;-1.82;71.89;100724.73;221830;1278;22929;-74
2023/02/05 14:41:57;;;;;;;7.40;5.10;;;;;;;-1.75;71.80;100726.31;221830;1275;22999;-74
2023/02/05 14:47:27;;;;;;;8.20;5.10;;;;;;;-1.76;71.81;100731.36;221578;1275;22531;-74
2023/02/05 14:52:41;;;;;;;6.60;5.00;;;;;;;-1.79;71.87;100738.59;221848;1275;24991;-73
2023/02/05 14:58:02;;;;;;;8.70;5.60;;;;;;;-1.84;71.93;100740.16;221636;1275;25406;-74
2023/02/05 15:03:18;;;;;;;8.30;6.00;;;;;;;-1.93;71.80;100744.32;221687;1278;22540;-75
2023/02/05 15:08:44;;;;;;;10.60;7.50;;;;;;;-2.01;71.88;100745.50;221754;1274;22527;-74
2023/02/05 15:14:35;;;;;;;10.30;7.10;;;;;;;-2.03;72.35;100741.61;221800;1275;22652;-78
2023/02/05 15:19:42;;;;;;;11.00;6.70;;;;;;;-2.08;72.27;100746.45;220637;1282;22769;-73
2023/02/05 15:24:48;;;;;;;8.50;5.80;;;;;;;-2.13;72.44;100743.55;221631;1278;24270;-74
2023/02/05 15:29:53;;;;;;;9.50;5.90;;;;;;;-2.23;72.36;100739.29;221862;1273;24180;-75
2023/02/05 15:35:11;;;;;;;9.50;6.80;;;;;;;-2.29;72.51;100733.13;221664;1273;22546;-72
2023/02/05 15:40:31;;;;;;;16.30;8.90;;;;;;;-2.33;72.73;100740.88;221722;1274;22570;-74
2023/02/05 15:45:39;;;;;;;16.80;9.80;;;;;;;-2.39;72.64;100741.64;221609;1276;25421;-74
2023/02/05 15:50:55;;;;;;;16.70;9.60;;;;;;;-2.46;72.54;100745.18;221663;1278;22611;-74
2023/02/05 15:55:58;;;;;;;19.40;11.40;;;;;;;-2.53;72.90;100751.12;221996;1277;22661;-75
2023/02/05 16:01:02;;;;;;;15.30;9.10;;;;;;;-2.63;72.64;100754.58;221766;1275;23180;-75
2023/02/05 16:06:05;;;;;;;16.50;10.30;;;;;;;-2.69;72.83;100761.06;222014;1278;22683;-75
2023/02/05 16:11:07;;;;;;;14.50;9.30;;;;;;;-2.69;73.15;100762.27;221807;1278;24270;-74
2023/02/05 16:16:19;;;;;;;25.10;13.70;;;;;;;-2.68;73.17;100767.89;221608;1275;22674;-74
2023/02/05 16:21:35;;;;;;;24.00;12.40;;;;;;;-2.67;73.28;100769.60;221668;1278;22649;-75
2023/02/05 16:26:47;;;;;;;21.80;11.70;;;;;;;-2.65;73.39;100765.20;221798;1274;22553;-73
2023/02/05 16:31:58;;;;;;;25.20;13.70;;;;;;;-2.64;73.48;100778.27;221588;1278;22546;-74
2023/02/05 16:37:04;;;;;;;20.40;9.70;;;;;;;-2.64;73.45;100788.43;221727;1260;22562;-74
2023/02/05 16:42:15;;;;;;;13.30;8.20;;;;;;;-2.71;73.24;100798.34;221908;1275;24376;-74
2023/02/05 16:47:18;;;;;;;12.80;8.30;;;;;;;-2.76;73.20;100807.16;221738;1275;22606;-73
2023/02/05 16:52:34;;;;;;;16.10;9.80;;;;;;;-2.78;73.47;100808.61;221731;1277;24231;-74
2023/02/05 16:57:38;;;;;;;13.10;7.90;;;;;;;-2.81;73.50;100801.15;221747;1272;22567;-73
2023/02/05 17:02:40;;;;;;;14.80;9.40;;;;;;;-2.83;73.54;100802.77;221767;1274;25506;-73
2023/02/05 17:07:51;;;;;;;16.80;10.00;;;;;;;-2.87;73.46;100804.62;221792;1278;22607;-74
2023/02/05 17:13:02;;;;;;;22.20;12.50;;;;;;;-2.91;73.47;100806.46;221553;1277;28040;-73
2023/02/05 17:18:28;;;;;;;13.60;8.40;;;;;;;-2.96;73.45;100801.47;221961;1275;24735;-73
2023/02/05 17:23:31;;;;;;;15.80;8.40;;;;;;;-3.02;72.99;100806.17;221632;1277;22712;-73
2023/02/05 17:28:36;;;;;;;13.20;7.50;;;;;;;-3.06;73.09;100812.34;221759;1276;25618;-74
2023/02/05 17:33:39;;;;;;;12.10;7.40;;;;;;;-3.11;73.23;100806.30;221613;1267;23124;-74
2023/02/05 17:38:41;;;;;;;12.00;6.60;;;;;;;-3.13;73.33;100811.71;221711;1275;22787;-74
2023/02/05 17:43:42;;;;;;;10.20;7.00;;;;;;;-3.14;73.32;100812.64;221686;1275;25949;-74
2023/02/05 17:48:46;;;;;;;10.90;6.70;;;;;;;-3.16;73.27;100820.27;221789;1278;22636;-73
2023/02/05 17:53:48;;;;;;;13.70;8.60;;;;;;;-3.15;73.55;100820.43;221678;1278;23116;-72
2023/02/05 17:58:52;;;;;;;11.90;7.60;;;;;;;-3.15;73.68;100822.84;221787;1278;25739;-74
2023/02/05 18:03:54;;;;;;;12.20;7.60;;;;;;;-3.17;73.31;100834.28;221785;1275;22639;-73
2023/02/05 18:08:55;;;;;;;12.80;7.80;;;;;;;-3.22;73.20;100839.06;221830;1275;22566;-74
2023/02/05 18:13:58;;;;;;;11.90;8.50;;;;;;;-3.26;72.98;100838.70;221651;1278;24253;-73
2023/02/05 18:18:59;;;;;;;13.40;8.60;;;;;;;-3.29;73.22;100845.88;221786;1275;22745;-73
2023/02/05 18:24:02;;;;;;;11.10;7.30;;;;;;;-3.32;73.12;100849.73;221808;1262;24159;-75
2023/02/05 18:29:05;;;;;;;12.00;7.90;;;;;;;-3.35;72.90;100849.14;222013;1275;24745;-73
2023/02/05 18:34:14;;;;;;;14.90;8.60;;;;;;;-3.35;72.94;100853.64;221808;1275;25464;-74
2023/02/05 18:39:16;;;;;;;14.10;8.60;;;;;;;-3.36;72.99;100852.12;221920;1267;22689;-73
2023/02/05 18:44:18;;;;;;;16.90;9.70;;;;;;;-3.37;72.90;100851.77;221639;1278;22690;-74
2023/02/05 18:49:21;;;;;;;12.70;8.00;;;;;;;-3.36;72.87;100850.40;221829;1275;22559;-73
2023/02/05 18:54:23;;;;;;;11.20;7.10;;;;;;;-3.38;72.86;100848.90;221797;1276;22649;-74
2023/02/05 18:59:27;;;;;;;15.00;9.10;;;;;;;-3.43;72.52;100854.74;221721;1275;22594;-74
2023/02/05 19:04:31;;;;;;;12.60;8.30;;;;;;;-3.48;72.51;100849.56;221701;1275;25492;-74
2023/02/05 19:09:35;;;;;;;15.20;9.60;;;;;;;-3.54;72.46;100853.69;221745;1275;24172;-74
2023/02/05 19:14:38;;;;;;;22.00;12.60;;;;;;;-3.60;72.59;100853.20;221715;1277;22636;-73
2023/02/05 19:19:40;;;;;;;40.30;18.70;;;;;;;-3.67;72.71;100848.60;221753;1275;25164;-73
2023/02/05 19:24:43;;;;;;;55.40;22.50;;;;;;;-3.75;72.73;100848.35;221694;1275;24409;-75
2023/02/05 19:29:46;;;;;;;33.60;16.40;;;;;;;-3.83;72.65;100855.84;221689;1275;22573;-74
2023/02/05 19:34:50;;;;;;;33.60;14.60;;;;;;;-3.93;72.99;100851.47;221783;1277;22715;-74
2023/02/05 19:39:52;;;;;;;28.30;15.60;;;;;;;-4.02;73.03;100851.55;221531;1278;24261;-73
2023/02/05 19:44:55;;;;;;;30.50;15.70;;;;;;;-4.07;73.20;100853.09;221770;1254;24000;-74
2023/02/05 19:49:57;;;;;;;53.80;20.90;;;;;;;-4.15;73.32;100857.80;221565;1276;25498;-73
2023/02/05 19:54:59;;;;;;;41.20;16.50;;;;;;;-4.25;73.35;100864.10;221895;1277;24860;-74
2023/02/05 20:00:03;;;;;;;37.60;16.80;;;;;;;-4.33;73.50;100856.59;221633;1278;23129;-74
2023/02/05 20:05:12;;;;;;;35.00;16.00;;;;;;;-4.45;73.63;100856.60;221714;1275;22527;-73
2023/02/05 20:10:15;;;;;;;29.60;14.80;;;;;;;-4.57;73.77;100855.90;221845;1276;22710;-73
2023/02/05 20:15:17;;;;;;;30.30;16.20;;;;;;;-4.70;73.92;100865.00;221763;1276;25045;-73
2023/02/05 20:20:19;;;;;;;27.80;16.20;;;;;;;-4.81;74.06;100865.83;221656;1276;23898;-74
2023/02/05 20:25:34;;;;;;;30.30;16.70;;;;;;;-4.92;74.16;100872.81;221693;1278;22555;-74
2023/02/05 20:36:02;;;;;;;57.60;25.70;;;;;;;-5.07;74.37;100873.20;221824;1276;26790;-74
2023/02/05 20:41:16;;;;;;;43.50;19.70;;;;;;;-5.14;74.58;100886.76;221822;1254;23914;-74
2023/02/05 20:46:18;;;;;;;54.90;23.70;;;;;;;-5.22;74.57;100897.25;221741;1276;22640;-74
2023/02/05 20:51:21;;;;;;;37.60;16.90;;;;;;;-5.28;74.50;100896.02;221771;1278;22786;-73
2023/02/05 20:56:26;;;;;;;32.70;16.70;;;;;;;-5.29;74.84;100905.67;222022;1276;25760;-74
2023/02/05 21:01:30;;;;;;;25.50;13.90;;;;;;;-5.26;75.06;100907.15;221803;1276;22725;-74
2023/02/05 21:06:36;;;;;;;35.90;18.40;;;;;;;-5.22;75.22;100909.47;221849;1260;23471;-73
2023/02/05 21:11:39;;;;;;;30.50;15.60;;;;;;;-5.13;75.33;100917.48;221718;1254;22921;-73
2023/02/05 21:16:41;;;;;;;31.40;17.40;;;;;;;-5.02;75.36;100919.11;221572;1254;22994;-73
2023/02/05 21:21:44;;;;;;;36.80;19.00;;;;;;;-4.91;75.45;100925.20;221903;1276;22606;-73
2023/02/05 21:26:48;;;;;;;40.10;19.10;;;;;;;-4.82;75.53;100935.45;221784;1277;22823;-73
2023/02/05 21:31:54;;;;;;;29.40;15.40;;;;;;;-4.75;75.36;100938.38;221785;1270;25514;-74
2023/02/05 21:36:59;;;;;;;42.10;17.90;;;;;;;-4.70;75.34;100945.44;221928;1273;24424;-74
2023/02/05 21:42:01;;;;;;;46.20;20.50;;;;;;;-4.64;75.43;100950.80;221531;1277;22573;-74
2023/02/05 21:47:03;;;;;;;53.50;21.10;;;;;;;-4.58;75.38;100966.13;221647;1277;22592;-74
2023/02/05 21:52:07;;;;;;;36.50;18.10;;;;;;;-4.53;75.47;100959.81;221720;1277;143742;-73
2023/02/05 21:57:09;;;;;;;27.90;14.90;;;;;;;-4.49;75.37;100969.16;221611;1278;25379;-74
2023/02/05 22:02:11;;;;;;;23.40;14.30;;;;;;;-4.45;75.57;100967.67;221563;1277;26706;-73
2023/02/05 22:07:13;;;;;;;34.60;17.20;;;;;;;-4.43;75.43;100970.36;221738;1277;25588;-73
2023/02/05 22:12:17;;;;;;;31.30;17.00;;;;;;;-4.40;75.34;100977.17;221783;1278;22590;-73
2023/02/05 22:17:21;;;;;;;26.60;16.60;;;;;;;-4.36;75.35;100986.20;221786;1276;22692;-74
2023/02/05 22:22:23;;;;;;;27.20;15.90;;;;;;;-4.33;75.30;100982.52;221590;1273;22617;-74
2023/02/05 22:27:25;;;;;;;36.90;19.10;;;;;;;-4.31;75.34;100981.75;221687;1277;22664;-74
2023/02/05 22:32:30;;;;;;;35.80;19.80;;;;;;;-4.28;75.26;100987.52;221752;1277;22683;-73
2023/02/05 22:37:33;;;;;;;29.90;16.00;;;;;;;-4.24;75.34;100993.45;221743;1275;22602;-75
2023/02/05 22:42:35;;;;;;;31.60;16.80;;;;;;;-4.25;75.37;100993.98;221748;1276;22637;-74
2023/02/05 22:47:37;;;;;;;41.90;21.50;;;;;;;-4.24;75.29;100997.75;221785;1277;26587;-73
2023/02/05 22:52:39;;;;;;;53.90;25.90;;;;;;;-4.22;75.33;100997.34;221671;1276;25674;-74
2023/02/05 22:57:42;;;;;;;47.70;22.30;;;;;;;-4.18;75.25;101004.83;221676;1277;22583;-73
2023/02/05 23:02:45;;;;;;;38.80;20.50;;;;;;;-4.16;75.24;101000.83;221833;1276;24401;-73
2023/02/05 23:07:48;;;;;;;25.70;13.50;;;;;;;-4.13;75.23;101003.98;221833;1276;25460;-73
2023/02/05 23:12:51;;;;;;;33.30;17.80;;;;;;;-4.06;74.89;101009.48;221759;1277;25384;-73
2023/02/05 23:17:53;;;;;;;34.60;18.10;;;;;;;-4.00;74.95;101019.98;221835;1254;22887;-74
2023/02/05 23:22:55;;;;;;;38.70;20.20;;;;;;;-3.97;74.78;101008.20;221797;1277;24330;-73
2023/02/05 23:27:57;;;;;;;42.40;21.40;;;;;;;-3.96;74.70;101007.83;221827;1276;22699;-73